Time;durP1;ratioP1;P1;durP2;ratioP2;P2;SDS_P1;SDS_P2;PMS_P1;PMS_P2;Temp;Humidity;BMP_temperature;BMP_pressure;BME280_temperature;BME280_humidity;BME280_pressure;Samples;Min_cycle;Max_cycle;Signal;HPM_P1;HPM_P2
2022/12/11 00:01:51;;;;;;;20.03;15.07;;;;;;;;;;5011264;28;20452;-46
2022/12/11 00:04:17;;;;;;;20.23;16.00;;;;;;;;;;5011135;28;20467;-45
2022/12/11 00:06:43;;;;;;;20.97;16.53;;;;;;;;;;5010960;28;20432;-45
2022/12/11 00:09:09;;;;;;;20.37;16.17;;;;;;;;;;5010463;28;20476;-46
2022/12/11 00:11:36;;;;;;;20.10;16.07;;;;;;;;;;5010912;28;20225;-45
2022/12/11 00:14:02;;;;;;;21.43;15.30;;;;;;;;;;5010916;28;20572;-45
2022/12/11 00:16:28;;;;;;;20.07;15.30;;;;;;;;;;5014037;28;20903;-46
2022/12/11 00:18:55;;;;;;;20.40;15.80;;;;;;;;;;5014639;28;20543;-45
2022/12/11 00:21:21;;;;;;;21.33;15.73;;;;;;;;;;5014089;28;20463;-46
2022/12/11 00:23:47;;;;;;;19.87;15.07;;;;;;;;;;5014554;28;20433;-46
2022/12/11 00:26:14;;;;;;;18.70;14.63;;;;;;;;;;5014419;28;20428;-45
2022/12/11 00:28:42;;;;;;;20.57;14.97;;;;;;;;;;5014068;28;20449;-45
2022/12/11 00:31:10;;;;;;;20.00;15.47;;;;;;;;;;5014410;28;20476;-46
2022/12/11 00:33:36;;;;;;;20.97;15.97;;;;;;;;;;5013702;28;20606;-46
2022/12/11 00:36:03;;;;;;;20.93;15.37;;;;;;;;;;5013990;28;20873;-46
2022/12/11 00:38:29;;;;;;;18.47;15.07;;;;;;;;;;5014063;28;20200;-46
2022/12/11 00:40:58;;;;;;;18.43;14.73;;;;;;;;;;5014253;28;20444;-46
2022/12/11 00:43:24;;;;;;;18.90;14.40;;;;;;;;;;5013983;28;20502;-45
2022/12/11 00:45:51;;;;;;;18.87;14.30;;;;;;;;;;5013824;28;20483;-45
2022/12/11 00:48:17;;;;;;;16.83;13.67;;;;;;;;;;5010116;28;20540;-45
2022/12/11 00:50:43;;;;;;;19.40;15.93;;;;;;;;;;5013478;28;20473;-45
2022/12/11 00:53:09;;;;;;;18.57;15.10;;;;;;;;;;5013360;28;20843;-45
2022/12/11 00:55:36;;;;;;;19.47;15.00;;;;;;;;;;5013290;28;20433;-45
2022/12/11 00:58:03;;;;;;;20.37;14.60;;;;;;;;;;5013359;28;20484;-45
2022/12/11 01:00:29;;;;;;;21.23;15.60;;;;;;;;;;5013337;28;20433;-50
2022/12/11 01:02:56;;;;;;;34.43;26.43;;;;;;;;;;5013412;28;20934;-46
2022/12/11 01:05:22;;;;;;;20.83;16.07;;;;;;;;;;5014187;28;20951;-46
2022/12/11 01:07:48;;;;;;;19.00;15.60;;;;;;;;;;5013810;28;20452;-46
2022/12/11 01:10:23;;;;;;;18.43;14.83;;;;;;;;;;5013183;28;20918;-47
2022/12/11 01:12:50;;;;;;;21.27;16.13;;;;;;;;;;5013129;28;20568;-47
2022/12/11 01:15:16;;;;;;;18.67;14.40;;;;;;;;;;5013180;28;20452;-47
2022/12/11 01:17:42;;;;;;;20.73;15.87;;;;;;;;;;5013288;28;20491;-47
2022/12/11 01:20:10;;;;;;;19.53;15.07;;;;;;;;;;5013090;28;20797;-46
2022/12/11 01:22:36;;;;;;;19.90;15.70;;;;;;;;;;5013072;28;20459;-46
2022/12/11 01:25:02;;;;;;;21.67;16.50;;;;;;;;;;5013124;28;20437;-46
2022/12/11 01:27:28;;;;;;;22.40;16.63;;;;;;;;;;5013000;28;20433;-46
2022/12/11 01:29:54;;;;;;;23.47;17.60;;;;;;;;;;5013336;28;20432;-47
2022/12/11 01:32:20;;;;;;;22.20;17.10;;;;;;;;;;5013023;28;20996;-46
2022/12/11 01:34:46;;;;;;;23.00;17.10;;;;;;;;;;5012953;28;20490;-46
2022/12/11 01:37:13;;;;;;;23.50;17.73;;;;;;;;;;5012952;28;20526;-47
2022/12/11 01:39:39;;;;;;;21.97;16.60;;;;;;;;;;5013001;28;20449;-47
2022/12/11 01:42:09;;;;;;;21.90;16.60;;;;;;;;;;5013066;28;20432;-46
2022/12/11 01:44:53;;;;;;;22.67;16.57;;;;;;;;;;5012769;28;20441;-47
2022/12/11 01:47:19;;;;;;;21.23;16.57;;;;;;;;;;5012812;28;20416;-47
2022/12/11 01:49:45;;;;;;;20.07;14.57;;;;;;;;;;5012734;28;20514;-47
2022/12/11 01:52:15;;;;;;;20.47;15.47;;;;;;;;;;5012857;28;20441;-47
2022/12/11 01:54:41;;;;;;;19.33;15.23;;;;;;;;;;5012406;28;20507;-47
2022/12/11 01:57:08;;;;;;;17.63;14.43;;;;;;;;;;5012594;28;20437;-47
2022/12/11 01:59:36;;;;;;;20.10;14.33;;;;;;;;;;5012504;28;20539;-47
2022/12/11 02:02:05;;;;;;;18.90;14.47;;;;;;;;;;5012613;28;20491;-48
2022/12/11 02:04:32;;;;;;;19.87;14.83;;;;;;;;;;5012434;28;20853;-47
2022/12/11 02:06:58;;;;;;;20.27;15.07;;;;;;;;;;5012444;28;20440;-47
2022/12/11 02:09:27;;;;;;;20.10;14.70;;;;;;;;;;5012499;28;20495;-47
2022/12/11 02:11:59;;;;;;;18.77;15.33;;;;;;;;;;5012580;28;20456;-46
2022/12/11 02:14:28;;;;;;;20.50;14.83;;;;;;;;;;5012270;28;20480;-46
2022/12/11 02:16:56;;;;;;;21.60;15.17;;;;;;;;;;5012547;28;20448;-47
2022/12/11 02:19:31;;;;;;;19.93;14.83;;;;;;;;;;5012404;28;20444;-46
2022/12/11 02:21:58;;;;;;;19.77;14.40;;;;;;;;;;5012350;28;20527;-47
2022/12/11 02:24:37;;;;;;;21.67;15.57;;;;;;;;;;5012543;28;20471;-47
2022/12/11 02:27:11;;;;;;;19.53;13.73;;;;;;;;;;5012285;28;20474;-47
2022/12/11 02:29:39;;;;;;;20.27;15.43;;;;;;;;;;5012015;28;20946;-47
2022/12/11 02:32:08;;;;;;;15.90;12.67;;;;;;;;;;5012031;28;20856;-47
2022/12/11 02:34:37;;;;;;;18.03;13.67;;;;;;;;;;5011821;28;20488;-47
2022/12/11 02:37:05;;;;;;;18.83;14.37;;;;;;;;;;5011594;28;20480;-47
2022/12/11 02:39:33;;;;;;;17.47;13.80;;;;;;;;;;5011655;28;20448;-47
2022/12/11 02:41:59;;;;;;;17.00;13.47;;;;;;;;;;5011938;28;20479;-47
2022/12/11 02:44:28;;;;;;;18.00;13.10;;;;;;;;;;5011986;28;20467;-47
2022/12/11 02:46:56;;;;;;;17.37;13.57;;;;;;;;;;5012012;28;20436;-47
2022/12/11 02:49:22;;;;;;;19.63;14.87;;;;;;;;;;5011905;28;20502;-47
2022/12/11 02:51:49;;;;;;;19.57;14.07;;;;;;;;;;5011732;28;20784;-47
2022/12/11 02:54:16;;;;;;;17.13;13.43;;;;;;;;;;5011740;28;20472;-47
2022/12/11 02:56:44;;;;;;;18.83;13.93;;;;;;;;;;5011709;28;20448;-47
2022/12/11 02:59:14;;;;;;;14.17;12.17;;;;;;;;;;5011512;28;20449;-47
2022/12/11 03:01:40;;;;;;;15.77;12.60;;;;;;;;;;5011669;28;20433;-47
2022/12/11 03:04:08;;;;;;;18.03;13.47;;;;;;;;;;5011816;28;20437;-47
2022/12/11 03:06:35;;;;;;;18.67;14.37;;;;;;;;;;5010730;28;20526;-47
2022/12/11 03:09:02;;;;;;;17.70;13.47;;;;;;;;;;5011422;28;20467;-47
2022/12/11 03:11:28;;;;;;;16.63;12.30;;;;;;;;;;5011628;28;20447;-47
2022/12/11 03:13:54;;;;;;;17.73;13.83;;;;;;;;;;5011621;28;20550;-47
2022/12/11 03:16:26;;;;;;;16.83;13.10;;;;;;;;;;5011684;28;20437;-47
2022/12/11 03:18:54;;;;;;;18.17;12.83;;;;;;;;;;5011615;28;20968;-47
2022/12/11 03:21:26;;;;;;;14.83;12.47;;;;;;;;;;5011651;28;20440;-47
2022/12/11 03:23:56;;;;;;;17.33;13.50;;;;;;;;;;5011662;28;20870;-47
2022/12/11 03:26:23;;;;;;;16.43;12.83;;;;;;;;;;5011672;28;20450;-47
2022/12/11 03:28:53;;;;;;;17.47;12.73;;;;;;;;;;5011351;28;20487;-47
2022/12/11 03:31:22;;;;;;;17.13;13.33;;;;;;;;;;5011419;28;20814;-47
2022/12/11 03:33:50;;;;;;;15.57;12.57;;;;;;;;;;5011131;28;20508;-46
2022/12/11 03:36:18;;;;;;;16.23;12.90;;;;;;;;;;5011365;28;20476;-48
2022/12/11 03:38:48;;;;;;;13.97;11.63;;;;;;;;;;5011257;28;20539;-48
2022/12/11 03:41:15;;;;;;;17.97;13.30;;;;;;;;;;5011408;28;20448;-48
2022/12/11 03:43:41;;;;;;;17.40;13.33;;;;;;;;;;5011230;28;20444;-46
2022/12/11 03:46:08;;;;;;;16.47;12.87;;;;;;;;;;5011484;28;20432;-46
2022/12/11 03:48:35;;;;;;;14.93;11.80;;;;;;;;;;5011179;28;20467;-46
2022/12/11 03:51:03;;;;;;;16.77;11.97;;;;;;;;;;5013929;28;20519;-46
2022/12/11 03:53:29;;;;;;;15.83;12.63;;;;;;;;;;5014850;28;20531;-46
2022/12/11 03:55:58;;;;;;;17.00;13.10;;;;;;;;;;5014946;28;20491;-46
2022/12/11 03:58:24;;;;;;;16.43;13.10;;;;;;;;;;5014878;28;20441;-46
2022/12/11 04:00:50;;;;;;;18.07;13.53;;;;;;;;;;5014763;28;20445;-46
2022/12/11 04:03:16;;;;;;;16.10;12.60;;;;;;;;;;5014805;28;20454;-46
2022/12/11 04:05:43;;;;;;;17.67;12.97;;;;;;;;;;5014636;28;20444;-46
2022/12/11 04:08:10;;;;;;;16.73;13.27;;;;;;;;;;5014852;28;20455;-46
2022/12/11 04:10:36;;;;;;;16.00;12.43;;;;;;;;;;5014697;28;20784;-47
2022/12/11 04:13:03;;;;;;;17.70;12.20;;;;;;;;;;5014510;28;20546;-46
2022/12/11 04:15:29;;;;;;;14.63;11.87;;;;;;;;;;5014498;28;20954;-47
2022/12/11 04:26:11;;;;;;;16.17;12.50;;;;;;;;;;5014495;28;20420;-46
2022/12/11 04:28:39;;;;;;;16.23;12.87;;;;;;;;;;5014304;28;20437;-47
2022/12/11 04:31:05;;;;;;;16.57;13.87;;;;;;;;;;5014370;28;20507;-46
2022/12/11 04:33:31;;;;;;;20.50;13.90;;;;;;;;;;5013951;28;20845;-48
2022/12/11 04:35:57;;;;;;;17.47;13.67;;;;;;;;;;5014084;28;20538;-48
2022/12/11 04:38:23;;;;;;;19.50;14.33;;;;;;;;;;5014284;28;20985;-47
2022/12/11 04:40:49;;;;;;;19.03;14.47;;;;;;;;;;5013956;28;20506;-47
2022/12/11 04:43:15;;;;;;;18.43;14.93;;;;;;;;;;5013994;28;20441;-47
2022/12/11 04:45:43;;;;;;;19.33;14.23;;;;;;;;;;5013792;28;20439;-47
2022/12/11 04:48:09;;;;;;;19.27;14.70;;;;;;;;;;5014112;28;20547;-47
2022/12/11 04:50:35;;;;;;;19.43;14.10;;;;;;;;;;5013941;28;20524;-47
2022/12/11 04:53:01;;;;;;;23.13;14.50;;;;;;;;;;5013927;28;20530;-47
2022/12/11 04:55:27;;;;;;;19.93;14.30;;;;;;;;;;5013846;28;20441;-47
2022/12/11 04:57:53;;;;;;;18.83;14.23;;;;;;;;;;5013750;28;20445;-47
2022/12/11 05:00:19;;;;;;;18.40;14.17;;;;;;;;;;5013287;28;20957;-47
2022/12/11 05:02:46;;;;;;;19.83;13.83;;;;;;;;;;5013703;28;20519;-47
2022/12/11 05:05:13;;;;;;;20.13;14.30;;;;;;;;;;5013795;28;20447;-47
2022/12/11 05:07:39;;;;;;;20.23;13.37;;;;;;;;;;5013633;28;20456;-47
2022/12/11 05:10:06;;;;;;;19.43;14.20;;;;;;;;;;5013711;28;20527;-47
2022/12/11 05:12:32;;;;;;;21.00;13.97;;;;;;;;;;5013442;28;20444;-47
2022/12/11 05:14:59;;;;;;;18.00;13.70;;;;;;;;;;5013380;28;20480;-47
2022/12/11 05:17:25;;;;;;;19.40;14.20;;;;;;;;;;5013549;28;20447;-48
2022/12/11 05:19:53;;;;;;;20.70;13.30;;;;;;;;;;5013342;28;20445;-47
2022/12/11 05:22:19;;;;;;;17.37;12.60;;;;;;;;;;5013371;28;20835;-47
2022/12/11 05:24:45;;;;;;;17.70;13.17;;;;;;;;;;5013153;28;20531;-47
2022/12/11 05:27:11;;;;;;;18.93;13.47;;;;;;;;;;5013221;28;20479;-48
2022/12/11 05:29:38;;;;;;;17.90;12.70;;;;;;;;;;5013154;28;20946;-48
2022/12/11 05:32:04;;;;;;;15.93;12.57;;;;;;;;;;4994108;28;20430;-48
2022/12/11 05:34:30;;;;;;;19.30;13.10;;;;;;;;;;4993431;28;20712;-49
2022/12/11 05:36:57;;;;;;;18.77;13.00;;;;;;;;;;4993284;28;20979;-49
2022/12/11 05:39:23;;;;;;;17.37;12.87;;;;;;;;;;4993548;28;20548;-47
2022/12/11 05:41:49;;;;;;;17.33;13.13;;;;;;;;;;4993301;28;20437;-47
2022/12/11 05:44:15;;;;;;;15.13;11.43;;;;;;;;;;4993190;28;20960;-47
2022/12/11 05:46:41;;;;;;;16.83;12.20;;;;;;;;;;4993215;28;20445;-47
2022/12/11 05:49:07;;;;;;;17.53;12.03;;;;;;;;;;4993431;28;20452;-47
2022/12/11 05:51:33;;;;;;;18.33;12.40;;;;;;;;;;4993175;28;20433;-47
2022/12/11 05:54:00;;;;;;;16.50;12.30;;;;;;;;;;4993024;28;20568;-47
2022/12/11 05:56:27;;;;;;;19.43;12.83;;;;;;;;;;4993162;28;20512;-47
2022/12/11 05:58:54;;;;;;;18.50;12.90;;;;;;;;;;4993029;28;21002;-47
2022/12/11 06:01:21;;;;;;;19.50;13.43;;;;;;;;;;4993309;28;20438;-47
2022/12/11 06:03:48;;;;;;;18.37;13.30;;;;;;;;;;4992914;28;20445;-47
2022/12/11 06:06:14;;;;;;;19.80;13.47;;;;;;;;;;4993015;28;20920;-47
2022/12/11 06:08:40;;;;;;;18.47;12.90;;;;;;;;;;4993014;28;20438;-47
2022/12/11 06:11:08;;;;;;;19.63;14.23;;;;;;;;;;4992978;28;20445;-47
2022/12/11 06:13:34;;;;;;;21.40;13.90;;;;;;;;;;4991947;28;20481;-47
2022/12/11 06:16:01;;;;;;;19.90;14.30;;;;;;;;;;4992785;28;20437;-47
2022/12/11 06:18:27;;;;;;;18.47;13.30;;;;;;;;;;4992775;28;20445;-46
2022/12/11 06:20:53;;;;;;;16.40;12.30;;;;;;;;;;4992700;28;20854;-46
2022/12/11 06:23:19;;;;;;;17.67;13.23;;;;;;;;;;4992634;28;20472;-46
2022/12/11 06:25:45;;;;;;;20.30;13.73;;;;;;;;;;4992548;28;20430;-46
2022/12/11 06:28:13;;;;;;;18.87;14.03;;;;;;;;;;4992614;28;20488;-46
2022/12/11 06:30:39;;;;;;;22.63;14.33;;;;;;;;;;4992600;28;20469;-46
2022/12/11 06:33:05;;;;;;;19.07;13.07;;;;;;;;;;4992552;28;20487;-47
2022/12/11 06:35:31;;;;;;;18.17;13.83;;;;;;;;;;4992132;28;20553;-46
2022/12/11 06:37:57;;;;;;;19.00;13.53;;;;;;;;;;4992386;28;20480;-46
2022/12/11 06:40:23;;;;;;;18.43;13.40;;;;;;;;;;4992583;28;20440;-47
2022/12/11 06:42:49;;;;;;;19.63;13.67;;;;;;;;;;4991973;28;20491;-47
2022/12/11 06:45:17;;;;;;;19.03;12.40;;;;;;;;;;4992399;28;20434;-47
2022/12/11 06:47:43;;;;;;;17.43;12.17;;;;;;;;;;4992312;28;20492;-47
2022/12/11 06:50:09;;;;;;;16.10;12.20;;;;;;;;;;4992462;28;20434;-47
2022/12/11 06:52:35;;;;;;;17.13;12.40;;;;;;;;;;4992271;28;20456;-47
2022/12/11 06:55:01;;;;;;;17.63;13.13;;;;;;;;;;4992062;28;20838;-47
2022/12/11 06:57:27;;;;;;;16.30;13.33;;;;;;;;;;4991048;28;21028;-47
2022/12/11 06:59:53;;;;;;;14.17;11.07;;;;;;;;;;4991417;28;20532;-47
2022/12/11 07:02:21;;;;;;;19.27;12.43;;;;;;;;;;4991692;28;20512;-47
2022/12/11 07:04:47;;;;;;;16.63;12.10;;;;;;;;;;4991855;28;20516;-47
2022/12/11 07:07:13;;;;;;;18.83;12.83;;;;;;;;;;4991861;28;20442;-47
2022/12/11 07:09:39;;;;;;;16.53;11.80;;;;;;;;;;4992099;28;20442;-47
2022/12/11 07:12:06;;;;;;;16.17;12.03;;;;;;;;;;4991761;28;20476;-47
2022/12/11 07:14:32;;;;;;;17.57;13.30;;;;;;;;;;4991891;28;20569;-47
2022/12/11 07:16:58;;;;;;;16.87;12.43;;;;;;;;;;4991813;28;20492;-47
2022/12/11 07:19:26;;;;;;;16.53;12.13;;;;;;;;;;4992132;28;20446;-47
2022/12/11 07:21:52;;;;;;;19.10;13.03;;;;;;;;;;4991933;28;20529;-47
2022/12/11 07:24:18;;;;;;;18.30;13.03;;;;;;;;;;4993586;28;20946;-48
2022/12/11 07:26:44;;;;;;;15.93;13.20;;;;;;;;;;4995811;28;20446;-48
2022/12/11 07:29:10;;;;;;;19.07;13.07;;;;;;;;;;4995948;28;20441;-47
2022/12/11 07:31:36;;;;;;;16.17;12.17;;;;;;;;;;4995867;28;20617;-48
2022/12/11 07:34:03;;;;;;;18.37;13.57;;;;;;;;;;4995285;28;20896;-48
2022/12/11 07:36:31;;;;;;;15.57;11.97;;;;;;;;;;4995637;28;20568;-48
2022/12/11 07:38:58;;;;;;;17.57;12.73;;;;;;;;;;4995578;28;20446;-48
2022/12/11 07:41:26;;;;;;;17.90;12.77;;;;;;;;;;4995777;28;20445;-48
2022/12/11 07:43:52;;;;;;;16.43;13.27;;;;;;;;;;4995517;28;20516;-48
2022/12/11 07:46:20;;;;;;;16.77;12.10;;;;;;;;;;4995570;28;20430;-48
2022/12/11 07:48:47;;;;;;;14.33;11.80;;;;;;;;;;4995394;28;20441;-48
2022/12/11 07:51:14;;;;;;;16.10;12.70;;;;;;;;;;4995569;28;20532;-48
2022/12/11 07:53:42;;;;;;;16.57;12.97;;;;;;;;;;4995336;28;20841;-48
2022/12/11 07:56:08;;;;;;;18.70;13.17;;;;;;;;;;4995458;28;20441;-48
2022/12/11 07:58:34;;;;;;;18.77;13.47;;;;;;;;;;4995295;28;20516;-48
2022/12/11 08:01:01;;;;;;;16.47;12.67;;;;;;;;;;4995200;28;20436;-48
2022/12/11 08:03:27;;;;;;;17.60;12.70;;;;;;;;;;4995340;28;20504;-48
2022/12/11 08:05:53;;;;;;;19.07;13.63;;;;;;;;;;4995266;28;20939;-48
2022/12/11 08:08:19;;;;;;;20.40;13.40;;;;;;;;;;4995253;28;20199;-49
2022/12/11 08:10:47;;;;;;;16.53;13.00;;;;;;;;;;4995011;28;20918;-49
2022/12/11 08:13:12;;;;;;;16.27;12.33;;;;;;;;;;4994921;28;20437;-49
2022/12/11 08:15:38;;;;;;;16.67;12.97;;;;;;;;;;4995091;28;20452;-49
2022/12/11 08:18:05;;;;;;;18.37;12.63;;;;;;;;;;5001789;28;20211;-49
2022/12/11 08:20:31;;;;;;;18.10;13.83;;;;;;;;;;5002492;28;20429;-49
2022/12/11 08:22:57;;;;;;;17.00;12.70;;;;;;;;;;5003247;28;20499;-49
2022/12/11 08:25:23;;;;;;;17.77;13.00;;;;;;;;;;5004217;28;20434;-49
2022/12/11 08:27:50;;;;;;;19.03;13.57;;;;;;;;;;5002123;28;20433;-48
2022/12/11 08:30:16;;;;;;;20.13;14.60;;;;;;;;;;5003217;28;20432;-48
2022/12/11 08:32:42;;;;;;;18.47;14.00;;;;;;;;;;5003950;28;20442;-49
2022/12/11 08:35:08;;;;;;;20.63;14.27;;;;;;;;;;5001357;28;20477;-49
2022/12/11 08:37:34;;;;;;;21.47;16.13;;;;;;;;;;5003163;28;20571;-48
2022/12/11 08:40:00;;;;;;;23.20;15.57;;;;;;;;;;5003379;28;20516;-49
2022/12/11 08:42:26;;;;;;;20.80;15.13;;;;;;;;;;5001805;28;20598;-49
2022/12/11 08:44:54;;;;;;;21.93;15.27;;;;;;;;;;5003706;28;20451;-49
2022/12/11 08:47:20;;;;;;;18.63;14.00;;;;;;;;;;5003260;28;20477;-49
2022/12/11 08:49:46;;;;;;;18.60;13.73;;;;;;;;;;5001598;28;20951;-50
2022/12/11 08:52:12;;;;;;;20.90;14.43;;;;;;;;;;5002048;28;21040;-47
2022/12/11 08:54:38;;;;;;;18.07;13.43;;;;;;;;;;5002692;28;20473;-47
2022/12/11 08:57:04;;;;;;;17.60;13.83;;;;;;;;;;5003414;28;20452;-47
2022/12/11 08:59:30;;;;;;;21.07;15.30;;;;;;;;;;5001658;28;20820;-48
2022/12/11 09:01:57;;;;;;;19.20;14.83;;;;;;;;;;5004403;28;20441;-48
2022/12/11 09:04:23;;;;;;;21.90;16.20;;;;;;;;;;5013785;28;20543;-47
2022/12/11 09:06:49;;;;;;;21.10;14.80;;;;;;;;;;5013501;28;20441;-48
2022/12/11 09:09:16;;;;;;;19.50;14.73;;;;;;;;;;4996740;28;20477;-48
2022/12/11 09:11:42;;;;;;;23.03;15.37;;;;;;;;;;4993268;28;20444;-49
2022/12/11 09:14:08;;;;;;;20.73;15.10;;;;;;;;;;4993893;28;21051;-48
2022/12/11 09:16:39;;;;;;;24.40;15.67;;;;;;;;;;4993736;28;20508;-49
2022/12/11 09:19:07;;;;;;;22.30;15.70;;;;;;;;;;4993615;28;20864;-48
2022/12/11 09:21:33;;;;;;;19.93;15.07;;;;;;;;;;4993759;28;20449;-48
2022/12/11 09:23:59;;;;;;;19.53;14.37;;;;;;;;;;4990881;28;20444;-48
2022/12/11 09:26:26;;;;;;;20.80;15.03;;;;;;;;;;4993749;28;20445;-49
2022/12/11 09:28:52;;;;;;;19.13;14.73;;;;;;;;;;4993447;28;20850;-48
2022/12/11 09:31:22;;;;;;;25.13;16.27;;;;;;;;;;4993348;28;20437;-48
2022/12/11 09:33:48;;;;;;;20.20;14.67;;;;;;;;;;4993280;28;20496;-47
2022/12/11 09:36:15;;;;;;;20.90;15.10;;;;;;;;;;4993020;28;20516;-49
2022/12/11 09:38:45;;;;;;;20.93;15.77;;;;;;;;;;4993594;28;20437;-48
2022/12/11 09:41:26;;;;;;;21.73;15.80;;;;;;;;;;4993412;28;20438;-48
2022/12/11 09:43:57;;;;;;;22.10;16.33;;;;;;;;;;4993561;28;20473;-48
2022/12/11 09:46:24;;;;;;;20.63;15.17;;;;;;;;;;4993518;28;20532;-49
2022/12/11 09:48:52;;;;;;;19.90;14.83;;;;;;;;;;4993348;28;20456;-49
2022/12/11 09:51:22;;;;;;;21.03;15.90;;;;;;;;;;4993149;28;20452;-48
2022/12/11 09:53:50;;;;;;;21.20;15.33;;;;;;;;;;4993160;28;21020;-49
2022/12/11 09:56:18;;;;;;;20.97;15.67;;;;;;;;;;4993235;28;20455;-48
2022/12/11 09:58:54;;;;;;;22.77;15.50;;;;;;;;;;4993207;28;20477;-47
2022/12/11 10:01:21;;;;;;;20.73;15.87;;;;;;;;;;4993461;28;20437;-47
2022/12/11 10:03:55;;;;;;;23.27;15.97;;;;;;;;;;4993259;28;20438;-48
2022/12/11 10:06:25;;;;;;;21.63;16.63;;;;;;;;;;4992956;28;20465;-48
2022/12/11 10:08:56;;;;;;;22.13;15.93;;;;;;;;;;4992904;28;20830;-48
2022/12/11 10:11:32;;;;;;;23.40;15.77;;;;;;;;;;4993195;28;20520;-48
2022/12/11 10:14:02;;;;;;;23.97;16.43;;;;;;;;;;4992623;28;20473;-48
2022/12/11 10:16:32;;;;;;;23.23;17.07;;;;;;;;;;4992889;28;20438;-48
2022/12/11 10:18:58;;;;;;;23.33;16.10;;;;;;;;;;4992650;28;20954;-48
2022/12/11 10:21:26;;;;;;;23.87;16.80;;;;;;;;;;4992782;28;20855;-48
2022/12/11 10:23:54;;;;;;;22.50;16.97;;;;;;;;;;4992890;28;20438;-47
2022/12/11 10:26:21;;;;;;;23.27;16.50;;;;;;;;;;4992686;28;20770;-47
2022/12/11 10:28:47;;;;;;;24.40;16.57;;;;;;;;;;4992829;28;20448;-47
2022/12/11 10:31:28;;;;;;;24.50;16.70;;;;;;;;;;4992773;28;20440;-47
2022/12/11 10:33:58;;;;;;;21.87;16.10;;;;;;;;;;4992766;28;20505;-47
2022/12/11 10:36:27;;;;;;;23.30;16.70;;;;;;;;;;4992692;28;21013;-47
2022/12/11 10:38:53;;;;;;;21.30;15.27;;;;;;;;;;4992714;28;20452;-47
2022/12/11 10:41:23;;;;;;;22.43;16.03;;;;;;;;;;4992451;28;20801;-47
2022/12/11 10:43:50;;;;;;;22.40;16.17;;;;;;;;;;4992554;28;20444;-46
2022/12/11 10:46:18;;;;;;;21.73;16.40;;;;;;;;;;4992436;28;20433;-47
2022/12/11 10:48:47;;;;;;;23.47;16.80;;;;;;;;;;4992550;28;20469;-48
2022/12/11 10:51:14;;;;;;;23.37;17.43;;;;;;;;;;4992316;28;20425;-48
2022/12/11 10:53:44;;;;;;;24.67;17.37;;;;;;;;;;4992601;28;20473;-48
2022/12/11 10:56:11;;;;;;;26.37;17.73;;;;;;;;;;4992358;28;20927;-48
2022/12/11 10:58:40;;;;;;;25.50;18.87;;;;;;;;;;4992043;28;20798;-48
2022/12/11 11:01:08;;;;;;;25.50;18.30;;;;;;;;;;4992352;28;20441;-48
2022/12/11 11:03:35;;;;;;;20.67;16.10;;;;;;;;;;4992332;28;20445;-48
2022/12/11 11:06:03;;;;;;;21.30;16.20;;;;;;;;;;4992157;28;20429;-49
2022/12/11 11:08:37;;;;;;;21.60;16.43;;;;;;;;;;4992104;28;20940;-48
2022/12/11 11:11:04;;;;;;;20.87;15.73;;;;;;;;;;4992160;28;20448;-49
2022/12/11 11:13:34;;;;;;;22.13;16.43;;;;;;;;;;4992302;28;20445;-51
2022/12/11 11:16:01;;;;;;;24.87;17.70;;;;;;;;;;4992246;28;20480;-47
2022/12/11 11:18:28;;;;;;;22.10;16.47;;;;;;;;;;4992107;28;20445;-48
2022/12/11 11:20:54;;;;;;;22.73;16.63;;;;;;;;;;4991916;28;20912;-47
2022/12/11 11:23:21;;;;;;;21.07;16.20;;;;;;;;;;4991888;28;20433;-48
2022/12/11 11:25:52;;;;;;;22.20;16.47;;;;;;;;;;4992060;28;20431;-47
2022/12/11 11:28:20;;;;;;;23.77;17.27;;;;;;;;;;4991719;28;20908;-47
2022/12/11 11:30:54;;;;;;;23.30;17.23;;;;;;;;;;4992013;28;20530;-47
2022/12/11 11:33:21;;;;;;;24.30;18.10;;;;;;;;;;4991728;28;20444;-47
2022/12/11 11:35:51;;;;;;;42.20;31.00;;;;;;;;;;4991783;28;20488;-48
2022/12/11 11:38:18;;;;;;;25.00;17.67;;;;;;;;;;4991760;28;20456;-48
2022/12/11 11:40:46;;;;;;;25.53;17.17;;;;;;;;;;4991850;28;20445;-48
2022/12/11 11:43:15;;;;;;;25.40;18.47;;;;;;;;;;4988073;28;20441;-47
2022/12/11 11:45:46;;;;;;;25.87;17.73;;;;;;;;;;4991576;28;20813;-48
2022/12/11 11:48:28;;;;;;;26.17;18.57;;;;;;;;;;4987798;28;20449;-47
2022/12/11 11:50:56;;;;;;;26.53;18.80;;;;;;;;;;5028491;28;20440;-47
2022/12/11 11:53:23;;;;;;;26.43;18.40;;;;;;;;;;5028799;28;20519;-47
2022/12/11 11:56:36;;;;;;;25.83;17.77;;;;;;;;;;5028526;28;20443;-47
2022/12/11 11:59:05;;;;;;;26.53;17.97;;;;;;;;;;5026442;28;21035;-47
2022/12/11 12:01:32;;;;;;;23.53;18.10;;;;;;;;;;5029772;28;20454;-47
2022/12/11 12:04:00;;;;;;;25.43;17.93;;;;;;;;;;5027850;28;20465;-46
2022/12/11 12:06:30;;;;;;;26.53;18.47;;;;;;;;;;5030171;28;20439;-46
2022/12/11 12:09:02;;;;;;;26.30;18.67;;;;;;;;;;5030438;28;20479;-47
2022/12/11 12:11:31;;;;;;;27.67;19.67;;;;;;;;;;5032203;28;20436;-47
2022/12/11 12:14:02;;;;;;;28.20;19.87;;;;;;;;;;5033909;28;20977;-47
2022/12/11 12:16:32;;;;;;;29.67;20.20;;;;;;;;;;5034102;28;20439;-47
2022/12/11 12:19:02;;;;;;;28.60;20.10;;;;;;;;;;5034009;28;21011;-47
2022/12/11 12:21:31;;;;;;;29.23;20.87;;;;;;;;;;5034013;28;20454;-47
2022/12/11 12:24:03;;;;;;;30.23;20.77;;;;;;;;;;5033862;28;20953;-48
2022/12/11 12:26:30;;;;;;;30.47;20.87;;;;;;;;;;5034060;28;20493;-47
2022/12/11 12:29:01;;;;;;;31.57;20.83;;;;;;;;;;5033823;28;21181;-47
2022/12/11 12:31:34;;;;;;;31.20;21.67;;;;;;;;;;5033757;28;20452;-47
2022/12/11 12:34:05;;;;;;;32.07;21.43;;;;;;;;;;5033231;28;20482;-48
2022/12/11 12:36:34;;;;;;;27.87;19.20;;;;;;;;;;5032408;28;20501;-47
2022/12/11 12:39:01;;;;;;;29.33;20.27;;;;;;;;;;5032109;28;20505;-47
2022/12/11 12:41:34;;;;;;;30.03;20.37;;;;;;;;;;5033709;28;20431;-47
2022/12/11 12:44:05;;;;;;;25.63;18.17;;;;;;;;;;5033224;28;21025;-47
2022/12/11 12:46:38;;;;;;;28.33;20.13;;;;;;;;;;5033411;28;20428;-47
2022/12/11 12:49:11;;;;;;;29.73;20.20;;;;;;;;;;5033276;28;20443;-48
2022/12/11 12:51:37;;;;;;;29.80;19.13;;;;;;;;;;5034009;28;20432;-47
2022/12/11 12:54:03;;;;;;;28.53;19.97;;;;;;;;;;5033346;28;20472;-47
2022/12/11 12:56:31;;;;;;;27.93;20.47;;;;;;;;;;5031795;28;20440;-46
2022/12/11 12:58:57;;;;;;;31.07;20.33;;;;;;;;;;5033136;28;20455;-47
2022/12/11 13:01:24;;;;;;;27.50;19.00;;;;;;;;;;5033470;28;20453;-47
2022/12/11 13:03:53;;;;;;;27.00;18.43;;;;;;;;;;5033557;28;20472;-47
2022/12/11 13:06:29;;;;;;;28.50;19.00;;;;;;;;;;5033200;28;20944;-47
2022/12/11 13:08:55;;;;;;;25.47;19.30;;;;;;;;;;5033437;28;20474;-47
2022/12/11 13:11:30;;;;;;;26.07;18.57;;;;;;;;;;5033172;28;20439;-47
2022/12/11 13:14:01;;;;;;;27.33;19.17;;;;;;;;;;5031233;28;20470;-47
2022/12/11 13:16:33;;;;;;;28.30;18.87;;;;;;;;;;5032841;28;20493;-47
2022/12/11 13:18:59;;;;;;;24.43;17.80;;;;;;;;;;5032920;28;20493;-48
2022/12/11 13:21:27;;;;;;;25.83;19.30;;;;;;;;;;5032440;28;20509;-47
2022/12/11 13:23:54;;;;;;;31.33;21.00;;;;;;;;;;5033129;28;20444;-48
2022/12/11 13:26:27;;;;;;;24.13;17.80;;;;;;;;;;5032659;28;20522;-47
2022/12/11 13:28:54;;;;;;;29.80;19.87;;;;;;;;;;5032840;28;20440;-47
2022/12/11 13:31:27;;;;;;;25.07;19.57;;;;;;;;;;5032497;28;20436;-47
2022/12/11 13:33:55;;;;;;;29.10;19.70;;;;;;;;;;5032577;28;20532;-48
2022/12/11 13:36:30;;;;;;;26.93;19.97;;;;;;;;;;5032181;28;20564;-47
2022/12/11 13:38:59;;;;;;;27.07;19.20;;;;;;;;;;5032581;28;20537;-47
2022/12/11 13:41:26;;;;;;;27.33;18.83;;;;;;;;;;5032517;28;20502;-46
2022/12/11 13:43:53;;;;;;;25.40;19.30;;;;;;;;;;5024630;28;20939;-46
2022/12/11 13:46:22;;;;;;;30.57;20.93;;;;;;;;;;5030046;28;20444;-46
2022/12/11 13:48:49;;;;;;;26.33;18.90;;;;;;;;;;5031704;28;20917;-46
2022/12/11 13:51:16;;;;;;;26.57;19.13;;;;;;;;;;5031956;28;20819;-46
2022/12/11 13:53:42;;;;;;;27.63;19.93;;;;;;;;;;5032104;28;20487;-46
2022/12/11 13:56:16;;;;;;;29.47;19.77;;;;;;;;;;5025564;28;20456;-46
2022/12/11 13:58:42;;;;;;;25.53;18.87;;;;;;;;;;5012361;28;20490;-48
2022/12/11 14:01:10;;;;;;;26.67;18.27;;;;;;;;;;5011663;28;20460;-46
2022/12/11 14:03:38;;;;;;;26.73;19.27;;;;;;;;;;5012420;28;20516;-46
2022/12/11 14:06:09;;;;;;;29.60;20.17;;;;;;;;;;5012156;28;20440;-47
2022/12/11 14:08:35;;;;;;;24.53;18.37;;;;;;;;;;5012252;28;20943;-46
2022/12/11 14:11:01;;;;;;;24.93;18.90;;;;;;;;;;5011925;28;20815;-48
2022/12/11 14:13:32;;;;;;;25.73;19.30;;;;;;;;;;5011472;28;20444;-46
2022/12/11 14:15:58;;;;;;;27.33;18.53;;;;;;;;;;5012145;28;20469;-47
2022/12/11 14:18:26;;;;;;;27.03;19.07;;;;;;;;;;5011758;28;21018;-47
2022/12/11 14:20:56;;;;;;;28.43;20.10;;;;;;;;;;5011775;28;20441;-48
2022/12/11 14:23:23;;;;;;;25.27;18.77;;;;;;;;;;5011903;28;20433;-46
2022/12/11 14:25:52;;;;;;;27.63;20.07;;;;;;;;;;5011229;28;20852;-46
2022/12/11 14:28:18;;;;;;;27.80;19.60;;;;;;;;;;5011397;28;20511;-46